Hobbsville, North Carolina
Current Conditions -  °F | °C
As of 3:15 PM on Saturday 25 Oct 2014 (Local Time) from KEDE Reporting Station
Clear Clear  
Wind Chill: 70°   Ceiling: Unl
Heat Index: 70°   Visibility: 10mi
Dew Point: 49°   Wind: 5mph
Humidity: 47%   Direction: 220°SW
Pressure: 29.89"   Gusts: NA
Location:  36.35°N, 76.6°W
Report Text: KEDE 251915Z AUTO 22004KT 10SM CLR 21/09 A2989 RMK AO2 T02100093
Loading
Personal Weather Stations






























Interactive Weather Map
Tropical Storm Tracking
New forecast layout! Learn more

10-Day Weather Forecast

Advertisements
Track Severe Weather on mobile